sensor_id;sensor_type;location;lat;lon;timestamp;pressure;altitude;pressure_sealevel;temperature;humidity
44734;BME280;30462;52.446;-1.930;2022-10-30T00:00:18;99827.10547;;;;
44734;BME280;30462;52.446;-1.930;2022-10-30T00:01:18;99828.87891;;;;
44734;BME280;30462;52.446;-1.930;2022-10-30T00:02:18;99826.19141;;;;
44734;BME280;30462;52.446;-1.930;2022-10-30T00:03:17;99828.88281;;;;
44734;BME280;30462;52.446;-1.930;2022-10-30T00:04:18;99830.19531;;;;
44734;BME280;30462;52.446;-1.930;2022-10-30T00:05:18;99828.43359;;;;
44734;BME280;30462;52.446;-1.930;2022-10-30T00:06:18;99829.92578;;;;
44734;BME280;30462;52.446;-1.930;2022-10-30T00:07:17;99830.25781;;;;
44734;BME280;30462;52.446;-1.930;2022-10-30T00:08:18;99834.92969;;;;
44734;BME280;30462;52.446;-1.930;2022-10-30T00:09:18;99831.63281;;;;
44734;BME280;30462;52.446;-1.930;2022-10-30T00:10:18;99829.76172;;;;
44734;BME280;30462;52.446;-1.930;2022-10-30T00:11:17;99833.51953;;;;
44734;BME280;30462;52.446;-1.930;2022-10-30T00:12:18;99826.88672;;;;
44734;BME280;30462;52.446;-1.930;2022-10-30T00:13:18;99830.66016;;;;
44734;BME280;30462;52.446;-1.930;2022-10-30T00:14:17;99830.44922;;;;
44734;BME280;30462;52.446;-1.930;2022-10-30T00:15:18;99830.62109;;;;
44734;BME280;30462;52.446;-1.930;2022-10-30T00:16:18;99833.58984;;;;
44734;BME280;30462;52.446;-1.930;2022-10-30T00:17:18;99836.05078;;;;
44734;BME280;30462;52.446;-1.930;2022-10-30T00:18:18;99834.89844;;;;
44734;BME280;30462;52.446;-1.930;2022-10-30T00:19:17;99833.85938;;;;
44734;BME280;30462;52.446;-1.930;2022-10-30T00:20:18;99835.52344;;;;
44734;BME280;30462;52.446;-1.930;2022-10-30T00:21:18;99831.65625;;;;
44734;BME280;30462;52.446;-1.930;2022-10-30T00:22:18;99830.96875;;;;
44734;BME280;30462;52.446;-1.930;2022-10-30T00:23:18;99834.13672;;;;
44734;BME280;30462;52.446;-1.930;2022-10-30T00:24:18;99835.14063;;;;
44734;BME280;30462;52.446;-1.930;2022-10-30T00:25:18;99837.01953;;;;
44734;BME280;30462;52.446;-1.930;2022-10-30T00:26:18;99840.75781;;;;
44734;BME280;30462;52.446;-1.930;2022-10-30T00:27:17;99834.51563;;;;
44734;BME280;30462;52.446;-1.930;2022-10-30T00:28:18;99830.14063;;;;
44734;BME280;30462;52.446;-1.930;2022-10-30T00:29:18;99831.23047;;;;
44734;BME280;30462;52.446;-1.930;2022-10-30T00:30:18;99831.39844;;;;
44734;BME280;30462;52.446;-1.930;2022-10-30T00:31:18;99828.04688;;;;
44734;BME280;30462;52.446;-1.930;2022-10-30T00:32:18;99828.27344;;;;
44734;BME280;30462;52.446;-1.930;2022-10-30T00:33:18;99828.55859;;;;
44734;BME280;30462;52.446;-1.930;2022-10-30T00:34:18;99829.11328;;;;
44734;BME280;30462;52.446;-1.930;2022-10-30T00:35:18;99829.05469;;;;
44734;BME280;30462;52.446;-1.930;2022-10-30T00:36:18;99828.93359;;;;
44734;BME280;30462;52.446;-1.930;2022-10-30T00:37:18;99826.94922;;;;
44734;BME280;30462;52.446;-1.930;2022-10-30T00:38:17;99827.89063;;;;
44734;BME280;30462;52.446;-1.930;2022-10-30T00:39:18;99824.26953;;;;
44734;BME280;30462;52.446;-1.930;2022-10-30T00:40:18;99821.35547;;;;
44734;BME280;30462;52.446;-1.930;2022-10-30T00:41:18;99821.07422;;;;
44734;BME280;30462;52.446;-1.930;2022-10-30T00:42:18;99814.72656;;;;
44734;BME280;30462;52.446;-1.930;2022-10-30T00:45:18;99816.29688;;;;
44734;BME280;30462;52.446;-1.930;2022-10-30T00:46:20;99817.72656;;;;
44734;BME280;30462;52.446;-1.930;2022-10-30T00:47:18;99820.46875;;;;
44734;BME280;30462;52.446;-1.930;2022-10-30T00:48:18;99822.66797;;;;
44734;BME280;30462;52.446;-1.930;2022-10-30T00:49:18;99818.66406;;;;
44734;BME280;30462;52.446;-1.930;2022-10-30T00:50:19;99822.99219;;;;
44734;BME280;30462;52.446;-1.930;2022-10-30T00:51:18;99821.24609;;;;
44734;BME280;30462;52.446;-1.930;2022-10-30T00:52:17;99824.15234;;;;
44734;BME280;30462;52.446;-1.930;2022-10-30T00:53:18;99819.15625;;;;
44734;BME280;30462;52.446;-1.930;2022-10-30T00:54:18;99820.20313;;;;
44734;BME280;30462;52.446;-1.930;2022-10-30T00:55:19;99823.09375;;;;
44734;BME280;30462;52.446;-1.930;2022-10-30T00:56:19;99821.38281;;;;
44734;BME280;30462;52.446;-1.930;2022-10-30T00:57:18;99826.44141;;;;
44734;BME280;30462;52.446;-1.930;2022-10-30T00:58:21;99823.64063;;;;
44734;BME280;30462;52.446;-1.930;2022-10-30T00:59:19;99823.92578;;;;
44734;BME280;30462;52.446;-1.930;2022-10-30T01:00:18;99820.26172;;;;
44734;BME280;30462;52.446;-1.930;2022-10-30T01:01:18;99822.04688;;;;
44734;BME280;30462;52.446;-1.930;2022-10-30T01:02:18;99819.98047;;;;
44734;BME280;30462;52.446;-1.930;2022-10-30T01:03:17;99820.44922;;;;
44734;BME280;30462;52.446;-1.930;2022-10-30T01:04:18;99817.88672;;;;
44734;BME280;30462;52.446;-1.930;2022-10-30T01:05:19;99823.0625;;;;
44734;BME280;30462;52.446;-1.930;2022-10-30T01:06:17;99820.32031;;;;
44734;BME280;30462;52.446;-1.930;2022-10-30T01:07:18;99821.79688;;;;
44734;BME280;30462;52.446;-1.930;2022-10-30T01:08:18;99823.82813;;;;
44734;BME280;30462;52.446;-1.930;2022-10-30T01:09:18;99827.24219;;;;
44734;BME280;30462;52.446;-1.930;2022-10-30T01:10:18;99828.27344;;;;
44734;BME280;30462;52.446;-1.930;2022-10-30T01:11:18;99829.98438;;;;
44734;BME280;30462;52.446;-1.930;2022-10-30T01:12:18;99827.07422;;;;
44734;BME280;30462;52.446;-1.930;2022-10-30T01:13:19;99821.57422;;;;
44734;BME280;30462;52.446;-1.930;2022-10-30T01:14:17;99823.05859;;;;
44734;BME280;30462;52.446;-1.930;2022-10-30T01:15:18;99820.82031;;;;
44734;BME280;30462;52.446;-1.930;2022-10-30T01:18:20;99822.22656;;;;
44734;BME280;30462;52.446;-1.930;2022-10-30T01:19:21;99819.99609;;;;
44734;BME280;30462;52.446;-1.930;2022-10-30T01:20:24;99814.67188;;;;
44734;BME280;30462;52.446;-1.930;2022-10-30T01:23:21;99812.89453;;;;
44734;BME280;30462;52.446;-1.930;2022-10-30T01:25:22;99814.21875;;;;
44734;BME280;30462;52.446;-1.930;2022-10-30T01:26:19;99815.10938;;;;
44734;BME280;30462;52.446;-1.930;2022-10-30T01:28:23;99813.9375;;;;
44734;BME280;30462;52.446;-1.930;2022-10-30T01:29:21;99810.21094;;;;
44734;BME280;30462;52.446;-1.930;2022-10-30T01:30:20;99810.16797;;;;
44734;BME280;30462;52.446;-1.930;2022-10-30T01:31:26;99808.65625;;;;
44734;BME280;30462;52.446;-1.930;2022-10-30T01:33:22;99798.17578;;;;
44734;BME280;30462;52.446;-1.930;2022-10-30T01:34:19;99795.72656;;;;
44734;BME280;30462;52.446;-1.930;2022-10-30T01:35:19;99793.67578;;;;
44734;BME280;30462;52.446;-1.930;2022-10-30T01:36:20;99790.9375;;;;
44734;BME280;30462;52.446;-1.930;2022-10-30T01:37:19;99789.22266;;;;
44734;BME280;30462;52.446;-1.930;2022-10-30T01:38:19;99791.60156;;;;
44734;BME280;30462;52.446;-1.930;2022-10-30T01:39:19;99789.08984;;;;
44734;BME280;30462;52.446;-1.930;2022-10-30T01:40:18;99790.28906;;;;
44734;BME280;30462;52.446;-1.930;2022-10-30T01:41:18;99792.14453;;;;
44734;BME280;30462;52.446;-1.930;2022-10-30T01:43:18;99795.26172;;;;
44734;BME280;30462;52.446;-1.930;2022-10-30T01:44:19;99797.53906;;;;
44734;BME280;30462;52.446;-1.930;2022-10-30T01:45:21;99797.31641;;;;
44734;BME280;30462;52.446;-1.930;2022-10-30T01:47:21;99798.95703;;;;
44734;BME280;30462;52.446;-1.930;2022-10-30T01:50:20;99800.31641;;;;
44734;BME280;30462;52.446;-1.930;2022-10-30T01:51:22;99798.89063;;;;
44734;BME280;30462;52.446;-1.930;2022-10-30T01:52:20;99805.64844;;;;
44734;BME280;30462;52.446;-1.930;2022-10-30T01:53:20;99802.75;;;;
44734;BME280;30462;52.446;-1.930;2022-10-30T01:54:20;99803.93359;;;;
44734;BME280;30462;52.446;-1.930;2022-10-30T01:55:21;99803.90234;;;;
44734;BME280;30462;52.446;-1.930;2022-10-30T01:56:20;99804.34766;;;;
44734;BME280;30462;52.446;-1.930;2022-10-30T01:57:21;99806.74219;;;;
44734;BME280;30462;52.446;-1.930;2022-10-30T01:58:20;99806.92969;;;;
44734;BME280;30462;52.446;-1.930;2022-10-30T01:59:23;99808.66016;;;;
44734;BME280;30462;52.446;-1.930;2022-10-30T02:00:18;99805.75391;;;;
44734;BME280;30462;52.446;-1.930;2022-10-30T02:01:17;99803.61328;;;;
44734;BME280;30462;52.446;-1.930;2022-10-30T02:02:17;99803.33984;;;;
44734;BME280;30462;52.446;-1.930;2022-10-30T02:03:18;99803.82813;;;;
44734;BME280;30462;52.446;-1.930;2022-10-30T02:04:18;99806.14063;;;;
44734;BME280;30462;52.446;-1.930;2022-10-30T02:05:19;99808.83203;;;;
44734;BME280;30462;52.446;-1.930;2022-10-30T02:06:18;99802.34375;;;;
44734;BME280;30462;52.446;-1.930;2022-10-30T02:07:18;99801.37109;;;;
44734;BME280;30462;52.446;-1.930;2022-10-30T02:08:18;99798.66406;;;;
44734;BME280;30462;52.446;-1.930;2022-10-30T02:09:18;99800.48047;;;;
44734;BME280;30462;52.446;-1.930;2022-10-30T02:10:19;99799.67969;;;;
44734;BME280;30462;52.446;-1.930;2022-10-30T02:11:17;99799.71484;;;;
44734;BME280;30462;52.446;-1.930;2022-10-30T02:12:18;99796.52344;;;;
44734;BME280;30462;52.446;-1.930;2022-10-30T02:13:18;99796.14844;;;;
44734;BME280;30462;52.446;-1.930;2022-10-30T02:14:19;99793.52344;;;;
44734;BME280;30462;52.446;-1.930;2022-10-30T02:15:18;99795.58984;;;;
44734;BME280;30462;52.446;-1.930;2022-10-30T02:16:18;99793.83203;;;;
44734;BME280;30462;52.446;-1.930;2022-10-30T02:17:18;99793.03125;;;;
44734;BME280;30462;52.446;-1.930;2022-10-30T02:18:18;99791.69922;;;;
44734;BME280;30462;52.446;-1.930;2022-10-30T02:19:17;99790.91016;;;;
44734;BME280;30462;52.446;-1.930;2022-10-30T02:20:18;99790.26172;;;;
44734;BME280;30462;52.446;-1.930;2022-10-30T02:21:18;99794.50391;;;;
44734;BME280;30462;52.446;-1.930;2022-10-30T02:22:18;99792.45313;;;;
44734;BME280;30462;52.446;-1.930;2022-10-30T02:23:18;99791.83203;;;;
44734;BME280;30462;52.446;-1.930;2022-10-30T02:24:17;99788.98438;;;;
44734;BME280;30462;52.446;-1.930;2022-10-30T02:25:18;99790.10547;;;;
44734;BME280;30462;52.446;-1.930;2022-10-30T02:26:18;99787.51563;;;;
44734;BME280;30462;52.446;-1.930;2022-10-30T02:27:18;99785.53125;;;;
44734;BME280;30462;52.446;-1.930;2022-10-30T02:28:18;99780.89844;;;;
44734;BME280;30462;52.446;-1.930;2022-10-30T02:29:18;99780.32031;;;;
44734;BME280;30462;52.446;-1.930;2022-10-30T02:30:18;99782.88672;;;;
44734;BME280;30462;52.446;-1.930;2022-10-30T02:31:18;99782.80469;;;;
44734;BME280;30462;52.446;-1.930;2022-10-30T02:32:18;99782.03516;;;;
44734;BME280;30462;52.446;-1.930;2022-10-30T02:33:18;99780.33203;;;;
44734;BME280;30462;52.446;-1.930;2022-10-30T02:34:18;99777.45703;;;;
44734;BME280;30462;52.446;-1.930;2022-10-30T02:35:18;99779.32422;;;;
44734;BME280;30462;52.446;-1.930;2022-10-30T02:36:18;99776.02734;;;;
44734;BME280;30462;52.446;-1.930;2022-10-30T02:37:18;99777.125;;;;
44734;BME280;30462;52.446;-1.930;2022-10-30T02:38:18;99770.89453;;;;
44734;BME280;30462;52.446;-1.930;2022-10-30T02:39:18;99773.53906;;;;
44734;BME280;30462;52.446;-1.930;2022-10-30T02:40:18;99773.78516;;;;
44734;BME280;30462;52.446;-1.930;2022-10-30T02:41:18;99771.76953;;;;
44734;BME280;30462;52.446;-1.930;2022-10-30T02:42:18;99770.33984;;;;
44734;BME280;30462;52.446;-1.930;2022-10-30T02:43:18;99770.56641;;;;
44734;BME280;30462;52.446;-1.930;2022-10-30T02:44:17;99773.53516;;;;
44734;BME280;30462;52.446;-1.930;2022-10-30T02:45:18;99769.38672;;;;
44734;BME280;30462;52.446;-1.930;2022-10-30T02:46:18;99771.75391;;;;
44734;BME280;30462;52.446;-1.930;2022-10-30T02:47:18;99770.91797;;;;
44734;BME280;30462;52.446;-1.930;2022-10-30T02:48:18;99772.16797;;;;
44734;BME280;30462;52.446;-1.930;2022-10-30T02:49:18;99768.93359;;;;
44734;BME280;30462;52.446;-1.930;2022-10-30T02:50:24;99771.46875;;;;
44734;BME280;30462;52.446;-1.930;2022-10-30T02:51:18;99773.97656;;;;
44734;BME280;30462;52.446;-1.930;2022-10-30T02:52:17;99774.52344;;;;
44734;BME280;30462;52.446;-1.930;2022-10-30T02:53:18;99772.93359;;;;
44734;BME280;30462;52.446;-1.930;2022-10-30T02:54:18;99775.36328;;;;
44734;BME280;30462;52.446;-1.930;2022-10-30T02:55:18;99773.00391;;;;
44734;BME280;30462;52.446;-1.930;2022-10-30T02:56:19;99774.89063;;;;
44734;BME280;30462;52.446;-1.930;2022-10-30T02:57:18;99773.89063;;;;
44734;BME280;30462;52.446;-1.930;2022-10-30T02:58:17;99778.13281;;;;
44734;BME280;30462;52.446;-1.930;2022-10-30T02:59:18;99774.04688;;;;
44734;BME280;30462;52.446;-1.930;2022-10-30T03:00:18;99778.92188;;;;
44734;BME280;30462;52.446;-1.930;2022-10-30T03:01:18;99775.82422;;;;
44734;BME280;30462;52.446;-1.930;2022-10-30T03:02:18;99771.57813;;;;
44734;BME280;30462;52.446;-1.930;2022-10-30T03:03:18;99769.67969;;;;
44734;BME280;30462;52.446;-1.930;2022-10-30T03:04:18;99772.46484;;;;
44734;BME280;30462;52.446;-1.930;2022-10-30T03:05:18;99763.00781;;;;
44734;BME280;30462;52.446;-1.930;2022-10-30T03:06:18;99770.05469;;;;
44734;BME280;30462;52.446;-1.930;2022-10-30T03:07:18;99770.31641;;;;
44734;BME280;30462;52.446;-1.930;2022-10-30T03:08:18;99770.42578;;;;
44734;BME280;30462;52.446;-1.930;2022-10-30T03:09:18;99770.07031;;;;
44734;BME280;30462;52.446;-1.930;2022-10-30T03:10:18;99769.625;;;;
44734;BME280;30462;52.446;-1.930;2022-10-30T03:11:18;99768.68359;;;;
44734;BME280;30462;52.446;-1.930;2022-10-30T03:12:17;99766.38672;;;;
44734;BME280;30462;52.446;-1.930;2022-10-30T03:13:18;99767.35156;;;;
44734;BME280;30462;52.446;-1.930;2022-10-30T03:14:18;99766.59766;;;;
44734;BME280;30462;52.446;-1.930;2022-10-30T03:15:18;99764.82422;;;;
44734;BME280;30462;52.446;-1.930;2022-10-30T03:16:19;99761.71094;;;;
44734;BME280;30462;52.446;-1.930;2022-10-30T03:17:18;99765.4375;;;;
44734;BME280;30462;52.446;-1.930;2022-10-30T03:18:18;99765.40234;;;;
44734;BME280;30462;52.446;-1.930;2022-10-30T03:19:18;99765.83594;;;;
44734;BME280;30462;52.446;-1.930;2022-10-30T03:20:18;99764.1875;;;;
44734;BME280;30462;52.446;-1.930;2022-10-30T03:21:18;99762.60547;;;;
44734;BME280;30462;52.446;-1.930;2022-10-30T03:22:18;99763.5625;;;;
44734;BME280;30462;52.446;-1.930;2022-10-30T03:23:18;99765.64844;;;;
44734;BME280;30462;52.446;-1.930;2022-10-30T03:24:18;99761.91406;;;;
44734;BME280;30462;52.446;-1.930;2022-10-30T03:25:18;99761.45313;;;;
44734;BME280;30462;52.446;-1.930;2022-10-30T03:26:18;99763.16797;;;;
44734;BME280;30462;52.446;-1.930;2022-10-30T03:27:18;99764.39453;;;;
44734;BME280;30462;52.446;-1.930;2022-10-30T03:28:18;99762.86328;;;;
44734;BME280;30462;52.446;-1.930;2022-10-30T03:29:18;99758.58203;;;;
44734;BME280;30462;52.446;-1.930;2022-10-30T03:30:18;99759.91797;;;;
44734;BME280;30462;52.446;-1.930;2022-10-30T03:31:18;99759.30469;;;;
44734;BME280;30462;52.446;-1.930;2022-10-30T03:32:18;99762.34766;;;;
44734;BME280;30462;52.446;-1.930;2022-10-30T03:33:18;99760.89063;;;;
44734;BME280;30462;52.446;-1.930;2022-10-30T03:34:18;99760.05469;;;;
44734;BME280;30462;52.446;-1.930;2022-10-30T03:35:18;99757.28516;;;;
44734;BME280;30462;52.446;-1.930;2022-10-30T03:36:18;99758;;;;
44734;BME280;30462;52.446;-1.930;2022-10-30T03:37:18;99757.01172;;;;
44734;BME280;30462;52.446;-1.930;2022-10-30T03:38:18;99755.32813;;;;
44734;BME280;30462;52.446;-1.930;2022-10-30T03:39:18;99758.51563;;;;
44734;BME280;30462;52.446;-1.930;2022-10-30T03:40:18;99759.44531;;;;
44734;BME280;30462;52.446;-1.930;2022-10-30T03:41:18;99762.99609;;;;
44734;BME280;30462;52.446;-1.930;2022-10-30T03:42:18;99758.9375;;;;
44734;BME280;30462;52.446;-1.930;2022-10-30T03:43:18;99758.89063;;;;
44734;BME280;30462;52.446;-1.930;2022-10-30T03:44:18;99760.37891;;;;
44734;BME280;30462;52.446;-1.930;2022-10-30T03:45:18;99761.26563;;;;
44734;BME280;30462;52.446;-1.930;2022-10-30T03:46:18;99761.625;;;;
44734;BME280;30462;52.446;-1.930;2022-10-30T03:47:18;99755.91406;;;;
44734;BME280;30462;52.446;-1.930;2022-10-30T03:48:19;99749.71484;;;;
44734;BME280;30462;52.446;-1.930;2022-10-30T03:49:18;99750.35547;;;;
44734;BME280;30462;52.446;-1.930;2022-10-30T03:50:18;99749.60156;;;;
44734;BME280;30462;52.446;-1.930;2022-10-30T03:51:18;99745.9375;;;;
44734;BME280;30462;52.446;-1.930;2022-10-30T03:52:17;99748.25;;;;
44734;BME280;30462;52.446;-1.930;2022-10-30T03:53:18;99748.90234;;;;
44734;BME280;30462;52.446;-1.930;2022-10-30T03:54:18;99750.01563;;;;
44734;BME280;30462;52.446;-1.930;2022-10-30T03:55:17;99753.09375;;;;
44734;BME280;30462;52.446;-1.930;2022-10-30T03:56:18;99756.38672;;;;
44734;BME280;30462;52.446;-1.930;2022-10-30T03:57:18;99755.33594;;;;
44734;BME280;30462;52.446;-1.930;2022-10-30T03:58:17;99754.83594;;;;
44734;BME280;30462;52.446;-1.930;2022-10-30T03:59:18;99753.65234;;;;
44734;BME280;30462;52.446;-1.930;2022-10-30T04:00:18;99754.23828;;;;
44734;BME280;30462;52.446;-1.930;2022-10-30T04:01:18;99754.52344;;;;
44734;BME280;30462;52.446;-1.930;2022-10-30T04:02:18;99750.42188;;;;
44734;BME280;30462;52.446;-1.930;2022-10-30T04:03:18;99751.625;;;;
44734;BME280;30462;52.446;-1.930;2022-10-30T04:04:18;99746.35938;;;;
44734;BME280;30462;52.446;-1.930;2022-10-30T04:05:19;99743.79297;;;;
44734;BME280;30462;52.446;-1.930;2022-10-30T04:06:18;99745.36328;;;;
44734;BME280;30462;52.446;-1.930;2022-10-30T04:07:17;99740.98828;;;;
44734;BME280;30462;52.446;-1.930;2022-10-30T04:08:18;99744.88281;;;;
44734;BME280;30462;52.446;-1.930;2022-10-30T04:09:17;99748.59766;;;;
44734;BME280;30462;52.446;-1.930;2022-10-30T04:10:18;99745.74609;;;;
44734;BME280;30462;52.446;-1.930;2022-10-30T04:11:18;99742.20703;;;;
44734;BME280;30462;52.446;-1.930;2022-10-30T04:12:18;99742.23828;;;;
44734;BME280;30462;52.446;-1.930;2022-10-30T04:13:18;99740.66016;;;;
44734;BME280;30462;52.446;-1.930;2022-10-30T04:14:17;99740.375;;;;
44734;BME280;30462;52.446;-1.930;2022-10-30T04:15:18;99737.32031;;;;
44734;BME280;30462;52.446;-1.930;2022-10-30T04:16:18;99738.56641;;;;
44734;BME280;30462;52.446;-1.930;2022-10-30T04:17:17;99743.28906;;;;
44734;BME280;30462;52.446;-1.930;2022-10-30T04:18:18;99746.71484;;;;
44734;BME280;30462;52.446;-1.930;2022-10-30T04:19:18;99752.375;;;;
44734;BME280;30462;52.446;-1.930;2022-10-30T04:20:18;99749.64844;;;;
44734;BME280;30462;52.446;-1.930;2022-10-30T04:21:17;99751.43359;;;;
44734;BME280;30462;52.446;-1.930;2022-10-30T04:22:18;99750.75391;;;;
44734;BME280;30462;52.446;-1.930;2022-10-30T04:23:19;99753.55078;;;;
44734;BME280;30462;52.446;-1.930;2022-10-30T04:24:17;99755.41797;;;;
44734;BME280;30462;52.446;-1.930;2022-10-30T04:25:18;99750.57422;;;;
44734;BME280;30462;52.446;-1.930;2022-10-30T04:26:18;99753.86719;;;;
44734;BME280;30462;52.446;-1.930;2022-10-30T04:27:18;99751.30078;;;;
44734;BME280;30462;52.446;-1.930;2022-10-30T04:28:18;99746.49609;;;;
44734;BME280;30462;52.446;-1.930;2022-10-30T04:29:18;99747.48438;;;;
44734;BME280;30462;52.446;-1.930;2022-10-30T04:30:18;99739.82813;;;;
44734;BME280;30462;52.446;-1.930;2022-10-30T04:31:18;99739.79297;;;;
44734;BME280;30462;52.446;-1.930;2022-10-30T04:32:18;99733.67969;;;;
44734;BME280;30462;52.446;-1.930;2022-10-30T04:33:18;99727.03516;;;;
44734;BME280;30462;52.446;-1.930;2022-10-30T04:34:18;99724.15234;;;;
44734;BME280;30462;52.446;-1.930;2022-10-30T04:35:18;99725.14063;;;;
44734;BME280;30462;52.446;-1.930;2022-10-30T04:36:18;99723.41797;;;;
44734;BME280;30462;52.446;-1.930;2022-10-30T04:37:18;99723.9375;;;;
44734;BME280;30462;52.446;-1.930;2022-10-30T04:38:18;99720.15234;;;;
44734;BME280;30462;52.446;-1.930;2022-10-30T04:39:18;99720.46875;;;;
44734;BME280;30462;52.446;-1.930;2022-10-30T04:40:18;99713.17578;;;;
44734;BME280;30462;52.446;-1.930;2022-10-30T04:41:18;99709.39453;;;;
44734;BME280;30462;52.446;-1.930;2022-10-30T04:42:18;99708.28906;;;;
44734;BME280;30462;52.446;-1.930;2022-10-30T04:43:17;99700.9375;;;;
44734;BME280;30462;52.446;-1.930;2022-10-30T04:44:18;99699.92969;;;;
44734;BME280;30462;52.446;-1.930;2022-10-30T04:45:18;99700.60547;;;;
44734;BME280;30462;52.446;-1.930;2022-10-30T04:46:18;99701.21094;;;;
44734;BME280;30462;52.446;-1.930;2022-10-30T04:47:18;99700.92578;;;;
44734;BME280;30462;52.446;-1.930;2022-10-30T04:48:18;99700.00781;;;;
44734;BME280;30462;52.446;-1.930;2022-10-30T04:49:18;99709.96875;;;;
44734;BME280;30462;52.446;-1.930;2022-10-30T04:50:18;99712.23047;;;;
44734;BME280;30462;52.446;-1.930;2022-10-30T04:51:18;99718.63672;;;;
44734;BME280;30462;52.446;-1.930;2022-10-30T04:52:17;99721.3125;;;;
44734;BME280;30462;52.446;-1.930;2022-10-30T04:53:18;99721.91797;;;;
44734;BME280;30462;52.446;-1.930;2022-10-30T04:54:18;99722.74609;;;;
44734;BME280;30462;52.446;-1.930;2022-10-30T04:55:17;99730.00781;;;;
44734;BME280;30462;52.446;-1.930;2022-10-30T04:56:18;99734.37891;;;;
44734;BME280;30462;52.446;-1.930;2022-10-30T04:57:18;99734.98828;;;;
44734;BME280;30462;52.446;-1.930;2022-10-30T04:58:18;99741.25;;;;
44734;BME280;30462;52.446;-1.930;2022-10-30T04:59:18;99742.28906;;;;
44734;BME280;30462;52.446;-1.930;2022-10-30T05:00:18;99737.76563;;;;
44734;BME280;30462;52.446;-1.930;2022-10-30T05:01:18;99736.80078;;;;
44734;BME280;30462;52.446;-1.930;2022-10-30T05:02:18;99728.51563;;;;
44734;BME280;30462;52.446;-1.930;2022-10-30T05:03:18;99725.4375;;;;
44734;BME280;30462;52.446;-1.930;2022-10-30T05:04:18;99717.96484;;;;
44734;BME280;30462;52.446;-1.930;2022-10-30T05:05:18;99715.35547;;;;
44734;BME280;30462;52.446;-1.930;2022-10-30T05:06:20;99707.67578;;;;
44734;BME280;30462;52.446;-1.930;2022-10-30T05:07:18;99707.02734;;;;
44734;BME280;30462;52.446;-1.930;2022-10-30T05:08:18;99709.91016;;;;
44734;BME280;30462;52.446;-1.930;2022-10-30T05:09:18;99715.25391;;;;
44734;BME280;30462;52.446;-1.930;2022-10-30T05:10:18;99718.85547;;;;
44734;BME280;30462;52.446;-1.930;2022-10-30T05:11:18;99710.72656;;;;
44734;BME280;30462;52.446;-1.930;2022-10-30T05:12:18;99714.46484;;;;
44734;BME280;30462;52.446;-1.930;2022-10-30T05:13:18;99722.97656;;;;
44734;BME280;30462;52.446;-1.930;2022-10-30T05:14:17;99725.82422;;;;
44734;BME280;30462;52.446;-1.930;2022-10-30T05:15:18;99725.92188;;;;
44734;BME280;30462;52.446;-1.930;2022-10-30T05:16:18;99729.08203;;;;
44734;BME280;30462;52.446;-1.930;2022-10-30T05:17:17;99734.96094;;;;
44734;BME280;30462;52.446;-1.930;2022-10-30T05:18:18;99731.70703;;;;
44734;BME280;30462;52.446;-1.930;2022-10-30T05:19:18;99736.44141;;;;
44734;BME280;30462;52.446;-1.930;2022-10-30T05:20:18;99736.48828;;;;
44734;BME280;30462;52.446;-1.930;2022-10-30T05:21:18;99733.73438;;;;
44734;BME280;30462;52.446;-1.930;2022-10-30T05:22:18;99734.00781;;;;
44734;BME280;30462;52.446;-1.930;2022-10-30T05:23:17;99730.69141;;;;
44734;BME280;30462;52.446;-1.930;2022-10-30T05:24:18;99725.13281;;;;
44734;BME280;30462;52.446;-1.930;2022-10-30T05:25:18;99724.47656;;;;
44734;BME280;30462;52.446;-1.930;2022-10-30T05:26:17;99729.34375;;;;
44734;BME280;30462;52.446;-1.930;2022-10-30T05:27:18;99732.64063;;;;
44734;BME280;30462;52.446;-1.930;2022-10-30T05:28:18;99725.63672;;;;
44734;BME280;30462;52.446;-1.930;2022-10-30T05:29:18;99728.46094;;;;
44734;BME280;30462;52.446;-1.930;2022-10-30T05:30:18;99721.23047;;;;
44734;BME280;30462;52.446;-1.930;2022-10-30T05:31:18;99718.34375;;;;
44734;BME280;30462;52.446;-1.930;2022-10-30T05:32:18;99719.98047;;;;
44734;BME280;30462;52.446;-1.930;2022-10-30T05:33:18;99720.30469;;;;
44734;BME280;30462;52.446;-1.930;2022-10-30T05:34:18;99722.875;;;;
44734;BME280;30462;52.446;-1.930;2022-10-30T05:35:18;99722.93359;;;;
44734;BME280;30462;52.446;-1.930;2022-10-30T05:36:18;99725.22656;;;;
44734;BME280;30462;52.446;-1.930;2022-10-30T05:37:18;99725.02344;;;;
44734;BME280;30462;52.446;-1.930;2022-10-30T05:38:18;99724.46484;;;;
44734;BME280;30462;52.446;-1.930;2022-10-30T05:39:18;99724.85938;;;;
44734;BME280;30462;52.446;-1.930;2022-10-30T05:40:18;99718.61328;;;;
44734;BME280;30462;52.446;-1.930;2022-10-30T05:41:18;99720.6875;;;;
44734;BME280;30462;52.446;-1.930;2022-10-30T05:42:18;99719.91797;;;;
44734;BME280;30462;52.446;-1.930;2022-10-30T05:43:18;99715.69922;;;;
44734;BME280;30462;52.446;-1.930;2022-10-30T05:44:18;99717.34375;;;;
44734;BME280;30462;52.446;-1.930;2022-10-30T05:45:18;99717.92969;;;;
44734;BME280;30462;52.446;-1.930;2022-10-30T05:46:18;99716.51563;;;;
44734;BME280;30462;52.446;-1.930;2022-10-30T05:47:18;99721.51563;;;;
44734;BME280;30462;52.446;-1.930;2022-10-30T05:48:17;99720.78125;;;;
44734;BME280;30462;52.446;-1.930;2022-10-30T05:49:18;99728.83984;;;;
44734;BME280;30462;52.446;-1.930;2022-10-30T05:50:18;99724.50391;;;;
44734;BME280;30462;52.446;-1.930;2022-10-30T05:51:18;99729.84766;;;;
44734;BME280;30462;52.446;-1.930;2022-10-30T05:52:18;99719.02344;;;;
44734;BME280;30462;52.446;-1.930;2022-10-30T05:53:18;99719.42969;;;;
44734;BME280;30462;52.446;-1.930;2022-10-30T05:54:17;99713.56641;;;;
44734;BME280;30462;52.446;-1.930;2022-10-30T05:55:18;99713.875;;;;
44734;BME280;30462;52.446;-1.930;2022-10-30T05:56:18;99717.22266;;;;
44734;BME280;30462;52.446;-1.930;2022-10-30T05:57:18;99718.73047;;;;
44734;BME280;30462;52.446;-1.930;2022-10-30T05:58:18;99722.24219;;;;